sensor_id;sensor_type;location;lat;lon;timestamp;P1;durP1;ratioP1;P2;durP2;ratioP2
55078;SDS011;55187;49.496;6.010;2022-10-22T00:01:26;21.05;;;9.45;;
55078;SDS011;55187;49.496;6.010;2022-10-22T00:03:53;12.25;;;5.30;;
55078;SDS011;55187;49.496;6.010;2022-10-22T00:06:20;19.38;;;7.28;;
55078;SDS011;55187;49.496;6.010;2022-10-22T00:08:46;25.95;;;6.40;;
55078;SDS011;55187;49.496;6.010;2022-10-22T00:11:13;9.38;;;3.90;;
55078;SDS011;55187;49.496;6.010;2022-10-22T00:13:41;16.83;;;6.07;;
55078;SDS011;55187;49.496;6.010;2022-10-22T00:16:07;15.00;;;5.07;;
55078;SDS011;55187;49.496;6.010;2022-10-22T00:18:34;14.60;;;4.10;;
55078;SDS011;55187;49.496;6.010;2022-10-22T00:21:01;8.70;;;4.07;;
55078;SDS011;55187;49.496;6.010;2022-10-22T00:23:30;12.88;;;4.70;;
55078;SDS011;55187;49.496;6.010;2022-10-22T00:25:57;7.38;;;4.15;;
55078;SDS011;55187;49.496;6.010;2022-10-22T00:28:23;10.02;;;5.47;;
55078;SDS011;55187;49.496;6.010;2022-10-22T00:30:56;11.60;;;4.60;;
55078;SDS011;55187;49.496;6.010;2022-10-22T00:33:24;13.90;;;6.18;;
55078;SDS011;55187;49.496;6.010;2022-10-22T00:35:51;14.27;;;5.55;;
55078;SDS011;55187;49.496;6.010;2022-10-22T00:38:18;11.98;;;5.43;;
55078;SDS011;55187;49.496;6.010;2022-10-22T00:40:44;8.27;;;3.88;;
55078;SDS011;55187;49.496;6.010;2022-10-22T00:43:13;7.05;;;3.88;;
55078;SDS011;55187;49.496;6.010;2022-10-22T00:45:41;15.55;;;4.78;;
55078;SDS011;55187;49.496;6.010;2022-10-22T00:48:15;7.78;;;4.35;;
55078;SDS011;55187;49.496;6.010;2022-10-22T00:50:54;3.88;;;1.70;;
55078;SDS011;55187;49.496;6.010;2022-10-22T00:53:29;2.67;;;2.28;;
55078;SDS011;55187;49.496;6.010;2022-10-22T00:56:01;13.50;;;4.45;;
55078;SDS011;55187;49.496;6.010;2022-10-22T00:58:29;3.50;;;2.15;;
55078;SDS011;55187;49.496;6.010;2022-10-22T01:00:58;7.10;;;3.25;;
55078;SDS011;55187;49.496;6.010;2022-10-22T01:03:25;5.55;;;3.03;;
55078;SDS011;55187;49.496;6.010;2022-10-22T01:05:54;6.65;;;3.78;;
55078;SDS011;55187;49.496;6.010;2022-10-22T01:08:27;8.70;;;4.55;;
55078;SDS011;55187;49.496;6.010;2022-10-22T01:11:14;5.72;;;3.22;;
55078;SDS011;55187;49.496;6.010;2022-10-22T01:16:53;11.33;;;2.57;;
55078;SDS011;55187;49.496;6.010;2022-10-22T01:22:41;5.43;;;2.33;;
55078;SDS011;55187;49.496;6.010;2022-10-22T01:25:30;3.45;;;2.22;;
55078;SDS011;55187;49.496;6.010;2022-10-22T01:28:08;11.50;;;3.60;;
55078;SDS011;55187;49.496;6.010;2022-10-22T01:30:52;4.85;;;2.78;;
55078;SDS011;55187;49.496;6.010;2022-10-22T01:33:22;8.15;;;2.95;;
55078;SDS011;55187;49.496;6.010;2022-10-22T01:35:51;13.23;;;4.43;;
55078;SDS011;55187;49.496;6.010;2022-10-22T01:38:19;3.45;;;1.92;;
55078;SDS011;55187;49.496;6.010;2022-10-22T01:40:48;6.28;;;3.67;;
55078;SDS011;55187;49.496;6.010;2022-10-22T01:43:15;5.13;;;3.17;;
55078;SDS011;55187;49.496;6.010;2022-10-22T01:45:43;7.50;;;2.28;;
55078;SDS011;55187;49.496;6.010;2022-10-22T01:57:19;6.32;;;3.72;;
55078;SDS011;55187;49.496;6.010;2022-10-22T02:00:07;4.18;;;2.42;;
55078;SDS011;55187;49.496;6.010;2022-10-22T02:05:36;11.25;;;3.10;;
55078;SDS011;55187;49.496;6.010;2022-10-22T02:08:17;4.57;;;2.88;;
55078;SDS011;55187;49.496;6.010;2022-10-22T02:10:48;7.82;;;4.55;;
55078;SDS011;55187;49.496;6.010;2022-10-22T02:13:24;8.02;;;3.15;;
55078;SDS011;55187;49.496;6.010;2022-10-22T02:15:54;7.88;;;2.40;;
55078;SDS011;55187;49.496;6.010;2022-10-22T02:18:23;6.28;;;1.67;;
55078;SDS011;55187;49.496;6.010;2022-10-22T02:20:55;7.40;;;3.13;;
55078;SDS011;55187;49.496;6.010;2022-10-22T02:23:22;13.52;;;3.53;;
55078;SDS011;55187;49.496;6.010;2022-10-22T02:25:50;7.80;;;3.42;;
55078;SDS011;55187;49.496;6.010;2022-10-22T02:28:36;5.60;;;2.78;;
55078;SDS011;55187;49.496;6.010;2022-10-22T02:31:13;7.10;;;2.25;;
55078;SDS011;55187;49.496;6.010;2022-10-22T02:33:46;15.30;;;3.83;;
55078;SDS011;55187;49.496;6.010;2022-10-22T02:36:15;2.45;;;1.85;;
55078;SDS011;55187;49.496;6.010;2022-10-22T02:38:42;8.68;;;2.47;;
55078;SDS011;55187;49.496;6.010;2022-10-22T02:41:12;2.45;;;1.45;;
55078;SDS011;55187;49.496;6.010;2022-10-22T02:43:41;4.95;;;1.90;;
55078;SDS011;55187;49.496;6.010;2022-10-22T02:46:12;9.50;;;1.80;;
55078;SDS011;55187;49.496;6.010;2022-10-22T02:48:38;2.50;;;1.38;;
55078;SDS011;55187;49.496;6.010;2022-10-22T02:51:04;5.45;;;2.50;;
55078;SDS011;55187;49.496;6.010;2022-10-22T02:53:31;7.35;;;2.08;;
55078;SDS011;55187;49.496;6.010;2022-10-22T02:55:58;5.43;;;2.47;;
55078;SDS011;55187;49.496;6.010;2022-10-22T02:58:24;2.92;;;1.63;;
55078;SDS011;55187;49.496;6.010;2022-10-22T03:00:51;1.85;;;1.33;;
55078;SDS011;55187;49.496;6.010;2022-10-22T03:03:17;9.63;;;1.75;;
55078;SDS011;55187;49.496;6.010;2022-10-22T03:05:43;4.28;;;1.95;;
55078;SDS011;55187;49.496;6.010;2022-10-22T03:08:10;4.55;;;1.67;;
55078;SDS011;55187;49.496;6.010;2022-10-22T03:10:37;3.60;;;1.20;;
55078;SDS011;55187;49.496;6.010;2022-10-22T03:13:03;5.97;;;1.90;;
55078;SDS011;55187;49.496;6.010;2022-10-22T03:15:30;6.93;;;2.20;;
55078;SDS011;55187;49.496;6.010;2022-10-22T03:17:56;11.15;;;1.65;;
55078;SDS011;55187;49.496;6.010;2022-10-22T03:20:22;6.78;;;1.63;;
55078;SDS011;55187;49.496;6.010;2022-10-22T03:22:48;3.65;;;2.08;;
55078;SDS011;55187;49.496;6.010;2022-10-22T03:25:16;2.70;;;1.27;;
55078;SDS011;55187;49.496;6.010;2022-10-22T03:27:47;1.40;;;0.82;;
55078;SDS011;55187;49.496;6.010;2022-10-22T03:30:15;6.22;;;1.52;;
55078;SDS011;55187;49.496;6.010;2022-10-22T03:32:42;2.17;;;1.20;;
55078;SDS011;55187;49.496;6.010;2022-10-22T03:35:08;3.53;;;1.23;;
55078;SDS011;55187;49.496;6.010;2022-10-22T03:37:35;1.70;;;1.25;;
55078;SDS011;55187;49.496;6.010;2022-10-22T03:40:03;7.78;;;1.88;;
55078;SDS011;55187;49.496;6.010;2022-10-22T03:42:31;1.63;;;1.02;;
55078;SDS011;55187;49.496;6.010;2022-10-22T03:44:57;6.13;;;1.30;;
55078;SDS011;55187;49.496;6.010;2022-10-22T03:47:24;7.32;;;0.90;;
55078;SDS011;55187;49.496;6.010;2022-10-22T03:49:50;0.95;;;0.88;;
55078;SDS011;55187;49.496;6.010;2022-10-22T03:52:17;1.15;;;0.82;;
55078;SDS011;55187;49.496;6.010;2022-10-22T03:54:44;0.70;;;0.70;;
55078;SDS011;55187;49.496;6.010;2022-10-22T03:57:10;0.90;;;0.60;;
55078;SDS011;55187;49.496;6.010;2022-10-22T03:59:37;0.57;;;0.47;;
55078;SDS011;55187;49.496;6.010;2022-10-22T04:02:06;2.35;;;1.67;;
55078;SDS011;55187;49.496;6.010;2022-10-22T04:04:32;5.78;;;1.10;;
55078;SDS011;55187;49.496;6.010;2022-10-22T04:06:58;0.55;;;0.35;;
55078;SDS011;55187;49.496;6.010;2022-10-22T04:09:25;1.33;;;0.85;;
55078;SDS011;55187;49.496;6.010;2022-10-22T04:11:51;3.35;;;1.00;;
55078;SDS011;55187;49.496;6.010;2022-10-22T04:14:18;1.17;;;0.60;;
55078;SDS011;55187;49.496;6.010;2022-10-22T04:16:44;0.40;;;0.40;;
55078;SDS011;55187;49.496;6.010;2022-10-22T04:19:13;3.78;;;1.15;;
55078;SDS011;55187;49.496;6.010;2022-10-22T04:21:39;6.03;;;0.98;;
55078;SDS011;55187;49.496;6.010;2022-10-22T04:24:06;2.50;;;0.85;;
55078;SDS011;55187;49.496;6.010;2022-10-22T04:26:32;0.88;;;0.70;;
55078;SDS011;55187;49.496;6.010;2022-10-22T04:28:59;1.20;;;0.90;;
55078;SDS011;55187;49.496;6.010;2022-10-22T04:31:25;3.97;;;1.00;;
55078;SDS011;55187;49.496;6.010;2022-10-22T04:33:53;1.30;;;1.00;;
55078;SDS011;55187;49.496;6.010;2022-10-22T04:36:20;2.92;;;1.20;;
55078;SDS011;55187;49.496;6.010;2022-10-22T04:38:50;0.85;;;0.80;;
55078;SDS011;55187;49.496;6.010;2022-10-22T04:41:19;1.48;;;0.98;;
55078;SDS011;55187;49.496;6.010;2022-10-22T04:43:49;3.20;;;0.82;;
55078;SDS011;55187;49.496;6.010;2022-10-22T04:46:16;0.20;;;0.20;;
55078;SDS011;55187;49.496;6.010;2022-10-22T04:48:43;2.10;;;0.63;;
55078;SDS011;55187;49.496;6.010;2022-10-22T04:51:11;1.52;;;0.63;;
55078;SDS011;55187;49.496;6.010;2022-10-22T04:53:40;3.60;;;0.77;;
55078;SDS011;55187;49.496;6.010;2022-10-22T04:56:11;1.10;;;0.80;;
55078;SDS011;55187;49.496;6.010;2022-10-22T04:58:41;2.20;;;0.95;;
55078;SDS011;55187;49.496;6.010;2022-10-22T05:01:13;1.30;;;0.70;;
55078;SDS011;55187;49.496;6.010;2022-10-22T05:03:43;16.08;;;0.95;;
55078;SDS011;55187;49.496;6.010;2022-10-22T05:06:10;1.80;;;0.80;;
55078;SDS011;55187;49.496;6.010;2022-10-22T05:08:37;0.57;;;0.47;;
55078;SDS011;55187;49.496;6.010;2022-10-22T05:13:36;6.65;;;1.08;;
55078;SDS011;55187;49.496;6.010;2022-10-22T05:16:02;1.58;;;1.10;;
55078;SDS011;55187;49.496;6.010;2022-10-22T05:18:29;1.75;;;0.95;;
55078;SDS011;55187;49.496;6.010;2022-10-22T05:20:55;1.35;;;0.80;;
55078;SDS011;55187;49.496;6.010;2022-10-22T05:23:21;0.88;;;0.50;;
55078;SDS011;55187;49.496;6.010;2022-10-22T05:25:48;2.85;;;1.33;;
55078;SDS011;55187;49.496;6.010;2022-10-22T05:28:14;0.63;;;0.63;;
55078;SDS011;55187;49.496;6.010;2022-10-22T05:30:40;2.35;;;0.90;;
55078;SDS011;55187;49.496;6.010;2022-10-22T05:33:07;1.80;;;0.80;;
55078;SDS011;55187;49.496;6.010;2022-10-22T05:35:33;0.57;;;0.40;;
55078;SDS011;55187;49.496;6.010;2022-10-22T05:37:59;1.13;;;0.68;;
55078;SDS011;55187;49.496;6.010;2022-10-22T05:40:25;1.05;;;0.60;;
55078;SDS011;55187;49.496;6.010;2022-10-22T05:42:52;0.93;;;0.63;;
55078;SDS011;55187;49.496;6.010;2022-10-22T05:45:18;2.75;;;1.00;;
55078;SDS011;55187;49.496;6.010;2022-10-22T05:47:44;0.82;;;0.82;;
55078;SDS011;55187;49.496;6.010;2022-10-22T05:50:11;4.38;;;0.95;;
55078;SDS011;55187;49.496;6.010;2022-10-22T05:53:44;0.38;;;0.38;;
55078;SDS011;55187;49.496;6.010;2022-10-22T05:56:12;1.23;;;0.85;;
55078;SDS011;55187;49.496;6.010;2022-10-22T05:58:42;0.80;;;0.75;;
55078;SDS011;55187;49.496;6.010;2022-10-22T06:01:11;2.53;;;0.80;;
55078;SDS011;55187;49.496;6.010;2022-10-22T06:03:44;2.63;;;1.15;;
55078;SDS011;55187;49.496;6.010;2022-10-22T06:06:14;2.38;;;0.95;;
55078;SDS011;55187;49.496;6.010;2022-10-22T06:08:46;1.10;;;0.80;;
55078;SDS011;55187;49.496;6.010;2022-10-22T06:11:16;4.40;;;0.40;;
55078;SDS011;55187;49.496;6.010;2022-10-22T06:13:44;1.17;;;0.40;;
55078;SDS011;55187;49.496;6.010;2022-10-22T06:16:11;3.30;;;1.15;;
55078;SDS011;55187;49.496;6.010;2022-10-22T06:18:38;4.22;;;0.90;;
55078;SDS011;55187;49.496;6.010;2022-10-22T06:21:09;1.45;;;0.80;;
55078;SDS011;55187;49.496;6.010;2022-10-22T06:23:38;2.25;;;0.93;;
55078;SDS011;55187;49.496;6.010;2022-10-22T06:26:05;1.75;;;0.88;;
55078;SDS011;55187;49.496;6.010;2022-10-22T06:28:34;1.75;;;0.70;;
55078;SDS011;55187;49.496;6.010;2022-10-22T06:31:01;2.13;;;0.90;;
55078;SDS011;55187;49.496;6.010;2022-10-22T06:33:30;2.08;;;0.93;;
55078;SDS011;55187;49.496;6.010;2022-10-22T06:36:07;2.97;;;1.08;;
55078;SDS011;55187;49.496;6.010;2022-10-22T06:38:40;6.20;;;0.98;;
55078;SDS011;55187;49.496;6.010;2022-10-22T06:41:09;2.88;;;1.45;;
55078;SDS011;55187;49.496;6.010;2022-10-22T06:43:38;1.63;;;1.10;;
55078;SDS011;55187;49.496;6.010;2022-10-22T06:46:05;1.42;;;0.70;;
55078;SDS011;55187;49.496;6.010;2022-10-22T06:48:34;1.80;;;1.08;;
55078;SDS011;55187;49.496;6.010;2022-10-22T06:51:03;1.88;;;0.82;;
55078;SDS011;55187;49.496;6.010;2022-10-22T06:53:36;2.78;;;1.52;;
55078;SDS011;55187;49.496;6.010;2022-10-22T06:56:05;1.08;;;0.70;;
55078;SDS011;55187;49.496;6.010;2022-10-22T06:58:32;0.65;;;0.40;;
55078;SDS011;55187;49.496;6.010;2022-10-22T07:00:59;0.90;;;0.73;;
55078;SDS011;55187;49.496;6.010;2022-10-22T07:03:27;3.20;;;0.70;;
55078;SDS011;55187;49.496;6.010;2022-10-22T07:05:53;1.65;;;0.52;;
55078;SDS011;55187;49.496;6.010;2022-10-22T07:08:20;1.08;;;0.70;;
55078;SDS011;55187;49.496;6.010;2022-10-22T07:10:47;4.55;;;0.90;;
55078;SDS011;55187;49.496;6.010;2022-10-22T07:13:17;1.02;;;0.60;;
55078;SDS011;55187;49.496;6.010;2022-10-22T07:15:51;1.17;;;0.90;;
55078;SDS011;55187;49.496;6.010;2022-10-22T07:18:20;1.67;;;0.80;;
55078;SDS011;55187;49.496;6.010;2022-10-22T07:20:47;2.95;;;0.95;;
55078;SDS011;55187;49.496;6.010;2022-10-22T07:23:14;0.50;;;0.50;;
55078;SDS011;55187;49.496;6.010;2022-10-22T07:25:46;1.83;;;0.60;;
55078;SDS011;55187;49.496;6.010;2022-10-22T07:28:12;1.35;;;1.15;;
55078;SDS011;55187;49.496;6.010;2022-10-22T07:30:39;7.60;;;1.02;;
55078;SDS011;55187;49.496;6.010;2022-10-22T07:33:06;0.85;;;0.63;;
55078;SDS011;55187;49.496;6.010;2022-10-22T07:35:33;3.88;;;0.68;;
55078;SDS011;55187;49.496;6.010;2022-10-22T07:38:00;2.17;;;0.60;;
55078;SDS011;55187;49.496;6.010;2022-10-22T07:40:26;3.35;;;0.82;;
55078;SDS011;55187;49.496;6.010;2022-10-22T07:42:52;2.47;;;0.85;;
55078;SDS011;55187;49.496;6.010;2022-10-22T07:45:19;6.85;;;1.33;;
55078;SDS011;55187;49.496;6.010;2022-10-22T07:47:46;2.92;;;1.30;;
55078;SDS011;55187;49.496;6.010;2022-10-22T07:50:13;1.45;;;0.85;;
55078;SDS011;55187;49.496;6.010;2022-10-22T07:52:41;3.33;;;1.48;;
55078;SDS011;55187;49.496;6.010;2022-10-22T07:55:07;2.05;;;1.08;;
55078;SDS011;55187;49.496;6.010;2022-10-22T07:57:34;3.38;;;0.85;;
55078;SDS011;55187;49.496;6.010;2022-10-22T08:00:05;1.25;;;1.08;;
55078;SDS011;55187;49.496;6.010;2022-10-22T08:02:37;6.18;;;1.67;;
55078;SDS011;55187;49.496;6.010;2022-10-22T08:05:04;3.60;;;0.90;;
55078;SDS011;55187;49.496;6.010;2022-10-22T08:07:30;0.88;;;0.32;;
55078;SDS011;55187;49.496;6.010;2022-10-22T08:09:57;0.47;;;0.47;;
55078;SDS011;55187;49.496;6.010;2022-10-22T08:12:23;5.15;;;0.80;;
55078;SDS011;55187;49.496;6.010;2022-10-22T08:14:50;0.50;;;0.50;;
55078;SDS011;55187;49.496;6.010;2022-10-22T08:17:16;0.93;;;0.68;;
55078;SDS011;55187;49.496;6.010;2022-10-22T08:19:42;0.28;;;0.25;;
55078;SDS011;55187;49.496;6.010;2022-10-22T08:22:09;1.65;;;0.70;;
55078;SDS011;55187;49.496;6.010;2022-10-22T08:24:35;1.42;;;0.82;;
55078;SDS011;55187;49.496;6.010;2022-10-22T08:27:01;0.75;;;0.40;;
55078;SDS011;55187;49.496;6.010;2022-10-22T08:29:28;3.97;;;0.90;;
55078;SDS011;55187;49.496;6.010;2022-10-22T08:31:54;1.50;;;0.50;;
55078;SDS011;55187;49.496;6.010;2022-10-22T08:34:20;2.28;;;0.70;;
55078;SDS011;55187;49.496;6.010;2022-10-22T08:39:18;1.17;;;0.60;;
55078;SDS011;55187;49.496;6.010;2022-10-22T08:41:54;7.13;;;1.20;;
55078;SDS011;55187;49.496;6.010;2022-10-22T08:44:51;0.73;;;0.60;;
55078;SDS011;55187;49.496;6.010;2022-10-22T08:47:47;1.48;;;0.50;;
55078;SDS011;55187;49.496;6.010;2022-10-22T08:50:40;4.25;;;1.30;;
55078;SDS011;55187;49.496;6.010;2022-10-22T08:53:12;6.72;;;0.77;;
55078;SDS011;55187;49.496;6.010;2022-10-22T08:55:40;2.00;;;0.90;;
55078;SDS011;55187;49.496;6.010;2022-10-22T08:58:10;7.40;;;1.17;;
55078;SDS011;55187;49.496;6.010;2022-10-22T09:00:51;1.23;;;0.70;;
55078;SDS011;55187;49.496;6.010;2022-10-22T09:03:26;6.75;;;2.17;;
55078;SDS011;55187;49.496;6.010;2022-10-22T09:06:07;2.22;;;0.50;;
55078;SDS011;55187;49.496;6.010;2022-10-22T09:08:41;3.85;;;1.00;;
55078;SDS011;55187;49.496;6.010;2022-10-22T09:14:00;15.27;;;0.80;;
55078;SDS011;55187;49.496;6.010;2022-10-22T09:22:17;5.82;;;0.65;;
55078;SDS011;55187;49.496;6.010;2022-10-22T09:24:58;5.47;;;0.75;;
55078;SDS011;55187;49.496;6.010;2022-10-22T09:27:33;0.95;;;0.45;;
55078;SDS011;55187;49.496;6.010;2022-10-22T09:29:59;0.35;;;0.32;;
55078;SDS011;55187;49.496;6.010;2022-10-22T09:32:27;0.40;;;0.30;;
55078;SDS011;55187;49.496;6.010;2022-10-22T09:34:55;1.48;;;0.60;;
55078;SDS011;55187;49.496;6.010;2022-10-22T09:37:27;2.05;;;0.60;;
55078;SDS011;55187;49.496;6.010;2022-10-22T09:39:56;0.17;;;0.17;;
55078;SDS011;55187;49.496;6.010;2022-10-22T09:42:44;1.40;;;0.90;;
55078;SDS011;55187;49.496;6.010;2022-10-22T09:45:16;0.45;;;0.45;;
55078;SDS011;55187;49.496;6.010;2022-10-22T09:47:45;11.23;;;2.03;;
55078;SDS011;55187;49.496;6.010;2022-10-22T09:50:20;2.65;;;0.90;;
55078;SDS011;55187;49.496;6.010;2022-10-22T09:55:37;0.88;;;0.40;;
55078;SDS011;55187;49.496;6.010;2022-10-22T09:58:07;6.35;;;0.70;;
55078;SDS011;55187;49.496;6.010;2022-10-22T10:00:42;2.28;;;0.88;;
55078;SDS011;55187;49.496;6.010;2022-10-22T10:03:23;0.63;;;0.50;;
55078;SDS011;55187;49.496;6.010;2022-10-22T10:05:53;3.90;;;1.02;;
55078;SDS011;55187;49.496;6.010;2022-10-22T10:08:22;1.10;;;1.00;;
55078;SDS011;55187;49.496;6.010;2022-10-22T10:19:15;0.80;;;0.70;;
55078;SDS011;55187;49.496;6.010;2022-10-22T10:21:55;3.78;;;0.93;;
55078;SDS011;55187;49.496;6.010;2022-10-22T10:27:34;2.17;;;0.38;;
55078;SDS011;55187;49.496;6.010;2022-10-22T10:30:10;1.27;;;0.80;;
55078;SDS011;55187;49.496;6.010;2022-10-22T10:35:44;2.10;;;0.90;;
55078;SDS011;55187;49.496;6.010;2022-10-22T10:41:16;13.13;;;1.65;;
55078;SDS011;55187;49.496;6.010;2022-10-22T10:44:03;4.78;;;0.70;;
55078;SDS011;55187;49.496;6.010;2022-10-22T10:49:33;8.35;;;1.20;;
55078;SDS011;55187;49.496;6.010;2022-10-22T10:52:08;7.65;;;1.67;;
55078;SDS011;55187;49.496;6.010;2022-10-22T10:54:45;2.88;;;1.17;;
55078;SDS011;55187;49.496;6.010;2022-10-22T10:57:27;4.20;;;0.95;;
55078;SDS011;55187;49.496;6.010;2022-10-22T11:00:07;4.00;;;0.60;;
55078;SDS011;55187;49.496;6.010;2022-10-22T11:05:36;7.63;;;1.05;;
55078;SDS011;55187;49.496;6.010;2022-10-22T11:11:09;4.20;;;1.20;;
55078;SDS011;55187;49.496;6.010;2022-10-22T11:16:34;7.13;;;1.10;;
55078;SDS011;55187;49.496;6.010;2022-10-22T11:19:06;10.83;;;1.37;;
55078;SDS011;55187;49.496;6.010;2022-10-22T11:21:40;1.57;;;0.90;;
55078;SDS011;55187;49.496;6.010;2022-10-22T11:24:18;7.13;;;1.20;;
55078;SDS011;55187;49.496;6.010;2022-10-22T11:27:02;4.70;;;0.98;;
55078;SDS011;55187;49.496;6.010;2022-10-22T11:29:34;4.40;;;0.90;;
55078;SDS011;55187;49.496;6.010;2022-10-22T11:32:09;6.88;;;2.15;;
55078;SDS011;55187;49.496;6.010;2022-10-22T11:34:44;0.98;;;0.73;;
55078;SDS011;55187;49.496;6.010;2022-10-22T11:37:14;2.90;;;0.77;;
55078;SDS011;55187;49.496;6.010;2022-10-22T11:39:44;5.43;;;1.33;;
55078;SDS011;55187;49.496;6.010;2022-10-22T11:44:49;8.13;;;0.95;;
55078;SDS011;55187;49.496;6.010;2022-10-22T11:47:33;3.03;;;0.60;;
55078;SDS011;55187;49.496;6.010;2022-10-22T11:50:18;4.43;;;1.17;;
55078;SDS011;55187;49.496;6.010;2022-10-22T11:52:54;5.63;;;0.95;;
55078;SDS011;55187;49.496;6.010;2022-10-22T11:55:34;8.15;;;0.77;;
55078;SDS011;55187;49.496;6.010;2022-10-22T11:58:25;7.15;;;1.10;;
55078;SDS011;55187;49.496;6.010;2022-10-22T12:00:56;6.90;;;0.90;;
55078;SDS011;55187;49.496;6.010;2022-10-22T12:03:46;9.43;;;1.20;;
55078;SDS011;55187;49.496;6.010;2022-10-22T12:06:48;11.70;;;1.02;;
55078;SDS011;55187;49.496;6.010;2022-10-22T12:09:24;5.25;;;0.90;;
55078;SDS011;55187;49.496;6.010;2022-10-22T12:12:00;7.35;;;2.22;;
55078;SDS011;55187;49.496;6.010;2022-10-22T12:14:59;2.47;;;0.90;;
55078;SDS011;55187;49.496;6.010;2022-10-22T12:17:26;4.90;;;0.80;;
55078;SDS011;55187;49.496;6.010;2022-10-22T12:20:09;8.27;;;1.10;;
55078;SDS011;55187;49.496;6.010;2022-10-22T12:22:38;8.85;;;1.15;;
55078;SDS011;55187;49.496;6.010;2022-10-22T12:25:11;6.72;;;0.88;;
55078;SDS011;55187;49.496;6.010;2022-10-22T12:27:43;5.50;;;1.23;;
55078;SDS011;55187;49.496;6.010;2022-10-22T12:30:19;3.78;;;0.88;;
55078;SDS011;55187;49.496;6.010;2022-10-22T12:32:51;4.63;;;1.42;;
55078;SDS011;55187;49.496;6.010;2022-10-22T12:35:20;5.10;;;1.00;;
55078;SDS011;55187;49.496;6.010;2022-10-22T12:37:50;11.52;;;1.40;;
55078;SDS011;55187;49.496;6.010;2022-10-22T12:40:22;4.90;;;0.95;;
55078;SDS011;55187;49.496;6.010;2022-10-22T12:42:52;2.92;;;0.80;;
55078;SDS011;55187;49.496;6.010;2022-10-22T12:45:25;4.13;;;1.10;;
55078;SDS011;55187;49.496;6.010;2022-10-22T12:47:55;2.28;;;1.23;;
55078;SDS011;55187;49.496;6.010;2022-10-22T12:50:31;5.87;;;0.97;;
55078;SDS011;55187;49.496;6.010;2022-10-22T12:53:10;5.72;;;0.82;;
55078;SDS011;55187;49.496;6.010;2022-10-22T12:55:48;4.55;;;1.23;;
55078;SDS011;55187;49.496;6.010;2022-10-22T12:58:17;1.95;;;0.32;;
55078;SDS011;55187;49.496;6.010;2022-10-22T13:00:46;5.30;;;0.63;;
55078;SDS011;55187;49.496;6.010;2022-10-22T13:03:23;9.80;;;2.05;;
55078;SDS011;55187;49.496;6.010;2022-10-22T13:05:55;6.40;;;0.88;;
55078;SDS011;55187;49.496;6.010;2022-10-22T13:08:22;4.47;;;0.70;;
55078;SDS011;55187;49.496;6.010;2022-10-22T13:10:53;5.20;;;1.20;;
55078;SDS011;55187;49.496;6.010;2022-10-22T13:16:19;4.43;;;1.00;;
55078;SDS011;55187;49.496;6.010;2022-10-22T13:18:49;1.55;;;0.77;;
55078;SDS011;55187;49.496;6.010;2022-10-22T13:21:22;1.02;;;0.80;;
55078;SDS011;55187;49.496;6.010;2022-10-22T13:23:52;3.67;;;0.93;;
55078;SDS011;55187;49.496;6.010;2022-10-22T13:26:20;2.05;;;0.47;;
55078;SDS011;55187;49.496;6.010;2022-10-22T13:28:51;2.67;;;0.95;;
55078;SDS011;55187;49.496;6.010;2022-10-22T13:31:22;1.30;;;0.67;;
55078;SDS011;55187;49.496;6.010;2022-10-22T13:33:54;4.05;;;1.17;;
55078;SDS011;55187;49.496;6.010;2022-10-22T13:36:22;3.78;;;0.98;;
55078;SDS011;55187;49.496;6.010;2022-10-22T13:38:49;5.35;;;1.00;;
55078;SDS011;55187;49.496;6.010;2022-10-22T13:41:21;4.00;;;0.50;;
55078;SDS011;55187;49.496;6.010;2022-10-22T13:43:52;4.00;;;0.70;;
55078;SDS011;55187;49.496;6.010;2022-10-22T13:46:20;2.40;;;0.85;;
55078;SDS011;55187;49.496;6.010;2022-10-22T13:48:48;6.03;;;1.10;;
55078;SDS011;55187;49.496;6.010;2022-10-22T13:54:03;8.52;;;1.20;;
55078;SDS011;55187;49.496;6.010;2022-10-22T13:56:39;3.67;;;0.70;;
55078;SDS011;55187;49.496;6.010;2022-10-22T13:59:05;2.05;;;1.00;;
55078;SDS011;55187;49.496;6.010;2022-10-22T14:01:31;6.07;;;1.13;;
55078;SDS011;55187;49.496;6.010;2022-10-22T14:03:58;1.45;;;0.93;;
55078;SDS011;55187;49.496;6.010;2022-10-22T14:06:28;2.78;;;0.88;;
55078;SDS011;55187;49.496;6.010;2022-10-22T14:09:04;7.03;;;1.10;;
55078;SDS011;55187;49.496;6.010;2022-10-22T14:11:33;4.93;;;0.85;;
55078;SDS011;55187;49.496;6.010;2022-10-22T14:14:00;3.72;;;0.85;;
55078;SDS011;55187;49.496;6.010;2022-10-22T14:16:34;3.20;;;0.90;;
55078;SDS011;55187;49.496;6.010;2022-10-22T14:19:02;1.55;;;0.73;;
55078;SDS011;55187;49.496;6.010;2022-10-22T14:21:32;2.13;;;0.98;;
55078;SDS011;55187;49.496;6.010;2022-10-22T14:24:01;3.97;;;0.57;;
55078;SDS011;55187;49.496;6.010;2022-10-22T14:26:28;2.47;;;1.02;;
55078;SDS011;55187;49.496;6.010;2022-10-22T14:28:58;3.38;;;0.90;;
55078;SDS011;55187;49.496;6.010;2022-10-22T14:31:30;4.85;;;1.38;;
55078;SDS011;55187;49.496;6.010;2022-10-22T14:33:57;3.75;;;2.00;;
55078;SDS011;55187;49.496;6.010;2022-10-22T14:36:23;6.90;;;1.00;;
55078;SDS011;55187;49.496;6.010;2022-10-22T14:38:50;9.20;;;1.17;;
55078;SDS011;55187;49.496;6.010;2022-10-22T14:41:17;2.90;;;1.13;;
55078;SDS011;55187;49.496;6.010;2022-10-22T14:43:46;4.20;;;1.33;;
55078;SDS011;55187;49.496;6.010;2022-10-22T14:46:14;4.88;;;1.00;;
55078;SDS011;55187;49.496;6.010;2022-10-22T14:48:41;3.78;;;1.25;;
55078;SDS011;55187;49.496;6.010;2022-10-22T14:51:10;1.80;;;0.77;;
55078;SDS011;55187;49.496;6.010;2022-10-22T14:53:39;5.15;;;1.25;;
55078;SDS011;55187;49.496;6.010;2022-10-22T14:56:08;4.95;;;1.05;;
55078;SDS011;55187;49.496;6.010;2022-10-22T14:58:39;4.40;;;0.95;;
55078;SDS011;55187;49.496;6.010;2022-10-22T15:01:06;2.28;;;1.30;;
55078;SDS011;55187;49.496;6.010;2022-10-22T15:03:34;3.15;;;0.88;;
55078;SDS011;55187;49.496;6.010;2022-10-22T15:06:00;1.83;;;1.08;;
55078;SDS011;55187;49.496;6.010;2022-10-22T15:08:27;3.00;;;0.95;;
55078;SDS011;55187;49.496;6.010;2022-10-22T15:11:01;2.15;;;1.08;;
55078;SDS011;55187;49.496;6.010;2022-10-22T15:13:32;4.32;;;1.10;;
55078;SDS011;55187;49.496;6.010;2022-10-22T15:16:00;6.07;;;1.10;;
55078;SDS011;55187;49.496;6.010;2022-10-22T15:18:33;1.73;;;1.27;;
55078;SDS011;55187;49.496;6.010;2022-10-22T15:21:01;5.57;;;2.72;;
55078;SDS011;55187;49.496;6.010;2022-10-22T15:23:34;5.40;;;0.90;;
55078;SDS011;55187;49.496;6.010;2022-10-22T15:26:08;2.65;;;0.90;;
55078;SDS011;55187;49.496;6.010;2022-10-22T15:28:36;5.57;;;0.93;;
55078;SDS011;55187;49.496;6.010;2022-10-22T15:31:03;2.22;;;0.90;;
55078;SDS011;55187;49.496;6.010;2022-10-22T15:33:30;5.22;;;1.13;;
55078;SDS011;55187;49.496;6.010;2022-10-22T15:35:57;4.47;;;1.10;;
55078;SDS011;55187;49.496;6.010;2022-10-22T15:38:27;4.65;;;1.15;;
55078;SDS011;55187;49.496;6.010;2022-10-22T15:41:00;4.00;;;1.05;;
55078;SDS011;55187;49.496;6.010;2022-10-22T15:43:28;6.70;;;1.52;;
55078;SDS011;55187;49.496;6.010;2022-10-22T15:48:38;2.40;;;1.20;;
55078;SDS011;55187;49.496;6.010;2022-10-22T15:51:07;2.05;;;0.95;;
55078;SDS011;55187;49.496;6.010;2022-10-22T15:53:35;5.70;;;1.23;;
55078;SDS011;55187;49.496;6.010;2022-10-22T15:56:01;1.85;;;1.00;;
55078;SDS011;55187;49.496;6.010;2022-10-22T15:58:28;6.25;;;1.65;;
55078;SDS011;55187;49.496;6.010;2022-10-22T16:00:55;3.63;;;1.40;;
55078;SDS011;55187;49.496;6.010;2022-10-22T16:03:30;3.75;;;0.75;;
55078;SDS011;55187;49.496;6.010;2022-10-22T16:05:56;9.82;;;1.30;;
55078;SDS011;55187;49.496;6.010;2022-10-22T16:08:23;2.97;;;1.15;;
55078;SDS011;55187;49.496;6.010;2022-10-22T16:10:50;7.13;;;1.65;;
55078;SDS011;55187;49.496;6.010;2022-10-22T16:13:19;1.80;;;1.17;;
55078;SDS011;55187;49.496;6.010;2022-10-22T16:15:46;2.90;;;1.23;;
55078;SDS011;55187;49.496;6.010;2022-10-22T16:18:13;3.47;;;1.33;;
55078;SDS011;55187;49.496;6.010;2022-10-22T16:20:39;4.10;;;1.23;;